Terminal Aerodrome Forecast
Issued by NWS Green Bay, WI

Home | Current Version | Previous Version | Graphics & Text | Print | Product List | Glossary On
Versions: 1 2 3 4 5 6 7 8 9 10 11 12 13 14 15 16 17 18 19 20 21 22 23 24 25 26 27 28 29 30 31 32 33
000
FTUS43 KGRB 200600 AAA
TAFGRB
TAF AMD
KGRB 200620Z 2006/2106 27011KT P6SM SCT030 SCT050
      TEMPO 2006/2010 -SHSN
     FM201600 29015G23KT P6SM SCT035 BKN050
     FM202300 28007KT P6SM SCT050=

USA.gov is the U.S. government's official web portal to all federal, state and local government web resources and services.